Time;durP1;ratioP1;P1;durP2;ratioP2;P2;SDS_P1;SDS_P2;PMS_P1;PMS_P2;Temp;Humidity;BMP_temperature;BMP_pressure;BME280_temperature;BME280_humidity;BME280_pressure;Samples;Min_cycle;Max_cycle;Signal;HPM_P1;HPM_P2
2021/07/10 00:02:21;;;;;;;13.15;6.32;;;27.70;63.10;;;;;;5093646;28;20496;-86
2021/07/10 00:04:47;;;;;;;12.45;6.68;;;27.70;62.90;;;;;;5093524;28;20032;-86
2021/07/10 00:07:13;;;;;;;9.73;5.93;;;27.70;62.90;;;;;;5093898;28;20601;-86
2021/07/10 00:09:39;;;;;;;12.52;6.60;;;27.80;62.30;;;;;;5093322;28;20411;-85
2021/07/10 00:12:05;;;;;;;8.13;6.43;;;27.80;62.60;;;;;;5093838;28;20040;-87
2021/07/10 00:14:31;;;;;;;8.85;6.03;;;27.90;61.90;;;;;;5093664;28;20563;-86
2021/07/10 00:16:57;;;;;;;10.48;6.28;;;27.80;62.00;;;;;;5093722;28;20136;-86
2021/07/10 00:19:24;;;;;;;10.73;6.57;;;27.70;62.30;;;;;;5075386;28;20035;-86
2021/07/10 00:21:50;;;;;;;9.93;6.43;;;27.80;62.50;;;;;;5093480;28;20068;-85
2021/07/10 00:24:17;;;;;;;11.45;6.88;;;27.70;63.00;;;;;;5093111;28;20042;-86
2021/07/10 00:26:43;;;;;;;12.82;6.65;;;27.80;62.60;;;;;;5093256;28;20094;-85
2021/07/10 00:29:09;;;;;;;11.38;6.95;;;27.70;62.50;;;;;;5109212;28;20024;-85
2021/07/10 00:31:35;;;;;;;9.50;6.47;;;27.80;62.70;;;;;;5093211;28;20097;-86
2021/07/10 00:34:01;;;;;;;12.32;6.63;;;27.80;63.00;;;;;;5092800;28;20143;-85
2021/07/10 00:36:27;;;;;;;9.02;6.30;;;27.80;63.00;;;;;;5093028;28;20047;-86
2021/07/10 00:38:53;;;;;;;15.73;6.80;;;27.60;63.50;;;;;;5093248;28;20028;-86
2021/07/10 00:41:19;;;;;;;12.65;6.68;;;27.50;64.10;;;;;;5093087;28;20188;-86
2021/07/10 00:43:49;;;;;;;14.77;6.57;;;27.50;63.90;;;;;;5093443;28;20082;-86
2021/07/10 00:46:20;;;;;;;10.98;5.95;;;27.60;63.90;;;;;;5093392;28;20523;-86
2021/07/10 00:48:47;;;;;;;11.35;6.10;;;27.50;63.20;;;;;;5093105;28;20047;-86
2021/07/10 00:51:14;;;;;;;12.77;6.57;;;27.50;63.10;;;;;;5093315;28;20048;-87
2021/07/10 00:53:40;;;;;;;11.68;6.95;;;27.50;63.20;;;;;;5092935;28;20043;-86
2021/07/10 00:56:06;;;;;;;10.63;6.63;;;27.50;63.20;;;;;;5093340;28;20040;-86
2021/07/10 00:58:33;;;;;;;9.73;5.82;;;27.50;63.20;;;;;;5093085;28;20044;-87
2021/07/10 01:01:01;;;;;;;11.77;5.93;;;27.50;62.70;;;;;;5092888;28;20040;-86
2021/07/10 01:03:32;;;;;;;11.25;6.28;;;27.60;62.70;;;;;;5092924;28;20373;-86
2021/07/10 01:06:01;;;;;;;9.40;6.10;;;27.60;62.50;;;;;;5092828;28;20123;-87
2021/07/10 01:08:27;;;;;;;9.15;6.35;;;27.60;62.70;;;;;;5095448;28;20032;-87
2021/07/10 01:10:53;;;;;;;9.95;6.47;;;27.60;62.80;;;;;;5096991;28;20126;-87
2021/07/10 01:13:21;;;;;;;10.43;6.22;;;27.50;62.50;;;;;;5096760;28;20549;-86
2021/07/10 01:15:47;;;;;;;10.35;6.20;;;27.40;62.80;;;;;;5096922;28;20048;-85
2021/07/10 01:18:13;;;;;;;8.70;5.60;;;27.50;62.40;;;;;;5097327;28;20043;-87
2021/07/10 01:20:50;;;;;;;9.77;5.85;;;27.60;62.40;;;;;;5096730;28;20036;-87
2021/07/10 01:23:16;;;;;;;12.70;5.88;;;27.50;62.50;;;;;;5096979;28;20093;-87
2021/07/10 01:25:43;;;;;;;9.73;5.78;;;27.60;62.30;;;;;;5096728;28;20043;-87
2021/07/10 01:28:10;;;;;;;10.38;5.90;;;27.50;62.30;;;;;;5096796;28;20043;-87
2021/07/10 01:30:38;;;;;;;14.88;5.72;;;27.40;62.80;;;;;;5096574;28;20024;-88
2021/07/10 01:33:05;;;;;;;9.68;5.45;;;27.40;62.80;;;;;;5096848;28;20085;-87
2021/07/10 01:35:31;;;;;;;8.27;5.50;;;27.40;63.30;;;;;;5096279;28;20516;-87
2021/07/10 01:37:59;;;;;;;8.70;5.45;;;27.50;63.60;;;;;;5096372;28;20050;-87
2021/07/10 01:40:25;;;;;;;9.88;5.93;;;27.70;62.50;;;;;;5096185;28;20040;-88
2021/07/10 01:42:52;;;;;;;12.07;6.35;;;27.80;61.80;;;;;;5096351;28;20114;-88
2021/07/10 01:45:20;;;;;;;11.23;5.70;;;27.90;61.80;;;;;;5096057;28;20518;-88
2021/07/10 01:47:47;;;;;;;12.38;6.10;;;27.80;61.90;;;;;;5096305;28;20032;-89
2021/07/10 01:50:14;;;;;;;8.93;5.63;;;27.80;62.00;;;;;;5096015;28;20132;-88
2021/07/10 01:52:41;;;;;;;7.28;5.57;;;27.80;62.00;;;;;;5096850;28;20114;-89
2021/07/10 01:55:09;;;;;;;10.43;5.82;;;27.90;61.90;;;;;;5096074;28;20075;-89
2021/07/10 01:57:40;;;;;;;8.95;5.28;;;27.90;61.00;;;;;;5096001;28;20038;-88
2021/07/10 02:00:15;;;;;;;12.57;5.80;;;27.90;61.20;;;;;;5095959;28;20031;-88
2021/07/10 02:02:42;;;;;;;9.25;5.80;;;27.90;61.30;;;;;;5096031;28;20123;-89
2021/07/10 02:05:10;;;;;;;11.13;5.20;;;27.90;61.30;;;;;;5095633;28;20089;-88
2021/07/10 02:07:37;;;;;;;8.57;4.88;;;28.00;61.40;;;;;;5077690;28;20044;-88
2021/07/10 02:10:06;;;;;;;9.65;5.95;;;28.00;61.30;;;;;;5095791;28;20399;-88
2021/07/10 02:12:32;;;;;;;9.52;5.47;;;28.10;61.20;;;;;;5095769;28;20577;-87
2021/07/10 02:14:58;;;;;;;12.63;5.78;;;28.10;61.20;;;;;;5095544;28;20039;-87
2021/07/10 02:17:24;;;;;;;8.18;5.32;;;28.10;61.10;;;;;;5095588;28;20559;-87
2021/07/10 02:19:50;;;;;;;10.27;5.10;;;28.10;61.10;;;;;;5094502;28;20097;-87
2021/07/10 02:22:16;;;;;;;10.02;5.47;;;28.00;61.20;;;;;;5095414;28;20050;-86
2021/07/10 02:24:43;;;;;;;10.70;5.65;;;28.00;61.40;;;;;;5095431;28;20085;-87
2021/07/10 02:27:09;;;;;;;7.40;5.22;;;28.10;61.20;;;;;;5095676;28;20040;-87
2021/07/10 02:29:35;;;;;;;8.55;5.60;;;28.20;61.50;;;;;;5095689;28;20111;-87
2021/07/10 02:32:01;;;;;;;9.43;5.45;;;28.30;60.90;;;;;;5095762;28;20051;-86
2021/07/10 02:34:27;;;;;;;9.18;5.25;;;28.40;60.50;;;;;;5095166;28;20060;-87
2021/07/10 02:36:53;;;;;;;9.70;5.88;;;28.60;60.20;;;;;;5095447;28;20044;-87
2021/07/10 02:39:19;;;;;;;7.80;4.78;;;28.70;60.20;;;;;;5095578;28;20039;-87
2021/07/10 02:41:44;;;;;;;10.27;5.10;;;28.70;60.00;;;;;;5095592;28;20040;-87
2021/07/10 02:44:10;;;;;;;9.00;5.07;;;28.90;59.80;;;;;;5095268;28;20557;-87
2021/07/10 02:46:36;;;;;;;10.88;5.60;;;29.00;59.70;;;;;;5095189;28;20067;-86
2021/07/10 02:49:03;;;;;;;8.57;4.93;;;29.00;59.50;;;;;;5095323;28;20407;-87
2021/07/10 02:51:29;;;;;;;7.97;4.50;;;29.10;59.40;;;;;;5095258;28;20020;-87
2021/07/10 02:53:56;;;;;;;8.27;4.80;;;29.20;59.10;;;;;;5095135;28;20046;-87
2021/07/10 02:56:23;;;;;;;7.32;4.60;;;29.10;59.00;;;;;;5094760;28;20050;-87
2021/07/10 02:58:50;;;;;;;8.10;4.28;;;29.10;58.80;;;;;;5095404;28;20078;-87
2021/07/10 03:01:16;;;;;;;11.13;4.68;;;29.20;58.80;;;;;;5076615;28;20032;-87
2021/07/10 03:03:43;;;;;;;7.68;4.88;;;29.20;58.70;;;;;;5094973;28;20036;-87
2021/07/10 03:06:09;;;;;;;6.13;4.50;;;29.30;58.60;;;;;;5095140;28;20040;-86
2021/07/10 03:08:35;;;;;;;6.78;4.28;;;29.40;58.50;;;;;;5094923;28;20036;-87
2021/07/10 03:11:01;;;;;;;8.63;4.47;;;29.40;58.50;;;;;;5094770;28;20506;-87
2021/07/10 03:13:27;;;;;;;9.85;4.57;;;29.40;58.50;;;;;;5094719;28;20044;-87
2021/07/10 03:15:53;;;;;;;7.35;4.80;;;29.40;58.60;;;;;;5094223;28;20042;-86
2021/07/10 03:18:20;;;;;;;8.40;4.70;;;29.30;58.80;;;;;;5094459;28;20074;-86
2021/07/10 03:20:46;;;;;;;7.15;4.72;;;29.20;58.60;;;;;;5094517;28;20063;-86
2021/07/10 03:23:12;;;;;;;6.85;4.55;;;29.10;59.10;;;;;;5094255;28;20035;-86
2021/07/10 03:25:38;;;;;;;7.38;4.68;;;29.10;59.40;;;;;;5094533;28;20122;-87
2021/07/10 03:28:04;;;;;;;8.52;4.72;;;29.10;59.70;;;;;;5094670;28;20131;-87
2021/07/10 03:30:31;;;;;;;10.10;4.95;;;29.10;59.50;;;;;;5094129;28;20047;-87
2021/07/10 03:32:57;;;;;;;8.63;4.93;;;29.10;59.60;;;;;;5094278;28;20031;-87
2021/07/10 03:35:23;;;;;;;9.25;4.75;;;29.30;59.20;;;;;;5094308;28;20082;-87
2021/07/10 03:37:52;;;;;;;10.65;4.43;;;29.40;59.50;;;;;;5094275;28;20032;-87
2021/07/10 03:40:22;;;;;;;10.93;4.63;;;29.60;59.40;;;;;;5094100;28;20085;-86
2021/07/10 03:42:48;;;;;;;9.95;4.40;;;29.70;59.30;;;;;;5094202;28;20381;-86
2021/07/10 03:45:15;;;;;;;7.53;4.35;;;29.80;59.50;;;;;;5094389;28;20047;-86
2021/07/10 03:47:41;;;;;;;7.75;4.43;;;29.90;59.00;;;;;;5094487;28;20503;-86
2021/07/10 03:50:09;;;;;;;7.82;4.18;;;30.00;58.50;;;;;;5093764;28;20066;-86
2021/07/10 03:52:36;;;;;;;6.88;4.25;;;29.90;58.40;;;;;;5093689;28;20048;-86
2021/07/10 03:55:04;;;;;;;7.18;4.75;;;29.90;60.10;;;;;;5093942;28;20085;-86
2021/07/10 03:57:30;;;;;;;7.60;4.07;;;30.00;58.70;;;;;;5093585;28;20036;-86
2021/07/10 03:59:56;;;;;;;5.70;4.18;;;30.10;59.50;;;;;;5093465;28;20047;-85
2021/07/10 04:02:22;;;;;;;7.63;4.20;;;30.10;59.10;;;;;;5093953;28;20520;-86
2021/07/10 04:04:48;;;;;;;7.35;5.07;;;30.20;58.40;;;;;;5093701;28;20028;-86
2021/07/10 04:07:14;;;;;;;7.38;4.28;;;30.30;58.10;;;;;;5075622;28;20031;-85
2021/07/10 04:09:40;;;;;;;8.52;4.95;;;30.40;57.80;;;;;;5093788;28;20043;-85
2021/07/10 04:12:06;;;;;;;7.95;4.72;;;30.40;57.70;;;;;;5093776;28;20036;-86
2021/07/10 04:14:35;;;;;;;10.45;4.30;;;30.50;57.90;;;;;;5093438;28;20062;-85
2021/07/10 04:17:03;;;;;;;6.65;4.00;;;30.50;58.10;;;;;;5075559;28;20043;-86
2021/07/10 04:19:29;;;;;;;7.32;4.43;;;30.50;58.70;;;;;;5093446;28;20027;-86
2021/07/10 04:21:54;;;;;;;7.05;4.18;;;30.50;58.10;;;;;;5093400;28;20032;-86
2021/07/10 04:24:20;;;;;;;5.60;3.85;;;30.50;58.00;;;;;;5093738;28;20051;-86
2021/07/10 04:26:46;;;;;;;7.93;4.60;;;30.50;58.50;;;;;;5093294;28;20488;-86
2021/07/10 04:29:12;;;;;;;5.82;3.90;;;30.50;58.60;;;;;;5093550;28;20384;-86
2021/07/10 04:31:38;;;;;;;8.57;4.50;;;30.50;59.10;;;;;;5093312;28;20067;-86
2021/07/10 04:34:04;;;;;;;6.93;4.20;;;30.40;58.60;;;;;;5092955;28;20067;-86
2021/07/10 04:36:30;;;;;;;5.78;4.30;;;30.40;59.20;;;;;;5092993;28;20036;-87
2021/07/10 04:38:56;;;;;;;6.78;4.53;;;30.40;58.90;;;;;;5093102;28;20411;-86
2021/07/10 04:41:22;;;;;;;5.43;4.32;;;30.40;59.20;;;;;;5093212;28;20044;-86
2021/07/10 04:43:47;;;;;;;5.63;4.07;;;30.50;58.40;;;;;;5092523;28;20036;-86
2021/07/10 04:46:13;;;;;;;6.30;4.00;;;30.60;57.80;;;;;;5092866;28;20047;-85
2021/07/10 04:48:39;;;;;;;4.47;4.05;;;30.80;57.60;;;;;;5092968;28;20112;-86
2021/07/10 04:51:05;;;;;;;8.05;4.10;;;30.90;57.40;;;;;;5092959;28;20032;-86
2021/07/10 04:53:31;;;;;;;5.13;4.10;;;31.00;57.30;;;;;;5092868;28;20028;-86
2021/07/10 04:55:57;;;;;;;5.70;4.20;;;31.10;57.10;;;;;;5108109;28;20393;-85
2021/07/10 04:58:23;;;;;;;5.22;3.97;;;31.20;57.00;;;;;;5093023;28;20036;-85
2021/07/10 05:00:49;;;;;;;4.25;3.85;;;31.30;56.90;;;;;;5092777;28;20040;-85
2021/07/10 05:03:16;;;;;;;5.38;3.85;;;31.40;56.90;;;;;;5092859;28;20515;-86
2021/07/10 05:05:43;;;;;;;6.53;3.92;;;31.40;56.60;;;;;;5092688;28;20086;-85
2021/07/10 05:08:09;;;;;;;4.38;3.80;;;31.50;56.50;;;;;;5093100;28;20032;-85
2021/07/10 05:10:36;;;;;;;7.78;4.65;;;31.60;56.40;;;;;;5092622;28;20040;-85
2021/07/10 05:13:02;;;;;;;5.18;4.00;;;31.60;56.30;;;;;;5092639;28;20122;-85
2021/07/10 05:15:28;;;;;;;5.80;4.10;;;31.70;56.40;;;;;;5092595;28;20080;-86
2021/07/10 05:17:54;;;;;;;5.20;3.70;;;31.80;56.30;;;;;;5092824;28;20047;-86
2021/07/10 05:20:20;;;;;;;4.95;3.97;;;31.80;56.20;;;;;;5092806;28;20048;-86
2021/07/10 05:22:46;;;;;;;5.53;3.80;;;31.90;56.10;;;;;;5092448;28;20127;-86
2021/07/10 05:25:13;;;;;;;6.45;4.13;;;31.90;56.10;;;;;;5092526;28;20035;-86
2021/07/10 05:27:40;;;;;;;6.85;4.03;;;32.00;56.00;;;;;;5092441;28;20040;-85
2021/07/10 05:30:12;;;;;;;4.55;3.85;;;32.00;56.00;;;;;;5092571;28;20115;-85
2021/07/10 05:32:38;;;;;;;5.22;3.90;;;32.10;56.10;;;;;;5092608;28;20036;-85
2021/07/10 05:35:07;;;;;;;6.30;4.15;;;32.10;55.90;;;;;;5092244;28;20062;-83
2021/07/10 05:37:33;;;;;;;5.53;4.15;;;32.20;56.00;;;;;;5092573;28;20136;-84
2021/07/10 05:39:59;;;;;;;5.72;3.95;;;32.20;55.90;;;;;;5074442;28;20103;-83
2021/07/10 05:42:25;;;;;;;5.75;3.60;;;32.30;56.00;;;;;;5092649;28;20032;-84
2021/07/10 05:44:50;;;;;;;5.68;4.03;;;32.30;56.60;;;;;;5092347;28;20421;-84
2021/07/10 05:47:16;;;;;;;7.45;4.43;;;32.30;56.00;;;;;;5074469;28;20492;-83
2021/07/10 05:49:42;;;;;;;6.38;4.40;;;32.30;56.00;;;;;;5092070;28;20096;-81
2021/07/10 05:52:08;;;;;;;5.95;3.88;;;32.40;56.10;;;;;;5092343;28;20040;-83
2021/07/10 05:54:34;;;;;;;5.40;3.92;;;32.40;56.10;;;;;;5093303;28;20032;-83
2021/07/10 05:57:00;;;;;;;6.07;4.07;;;32.40;56.10;;;;;;5095867;28;20047;-83
2021/07/10 05:59:26;;;;;;;5.15;3.97;;;32.40;56.10;;;;;;5096078;28;20068;-83
2021/07/10 06:01:52;;;;;;;6.95;4.35;;;32.50;56.00;;;;;;5078226;28;20040;-83
2021/07/10 06:04:17;;;;;;;5.72;4.38;;;32.50;56.00;;;;;;5096083;28;20043;-83
2021/07/10 06:06:44;;;;;;;8.20;4.63;;;32.50;56.00;;;;;;5095819;28;20075;-82
2021/07/10 06:09:10;;;;;;;8.60;4.38;;;32.50;56.00;;;;;;5095779;28;20043;-82
2021/07/10 06:11:36;;;;;;;6.72;4.53;;;32.60;56.10;;;;;;5095454;28;20036;-82
2021/07/10 06:14:08;;;;;;;6.57;4.22;;;32.60;56.10;;;;;;5095741;28;20446;-82
2021/07/10 06:16:37;;;;;;;7.40;4.72;;;32.70;56.10;;;;;;5095307;28;20036;-83
2021/07/10 06:19:04;;;;;;;6.90;4.00;;;32.70;56.00;;;;;;5095909;28;20043;-83
2021/07/10 06:21:31;;;;;;;8.43;4.63;;;32.70;56.00;;;;;;5095390;28;20071;-82
2021/07/10 06:23:57;;;;;;;7.80;4.72;;;32.70;56.00;;;;;;5095566;28;20471;-82
2021/07/10 06:26:23;;;;;;;7.55;4.88;;;32.70;55.90;;;;;;5095794;28;20040;-82
2021/07/10 06:28:50;;;;;;;7.65;4.82;;;32.80;55.80;;;;;;5095217;28;20046;-82
2021/07/10 06:31:17;;;;;;;6.35;4.63;;;32.80;55.70;;;;;;5095368;28;20043;-82
2021/07/10 06:33:43;;;;;;;6.95;4.75;;;32.80;55.60;;;;;;5095646;28;20060;-83
2021/07/10 06:36:09;;;;;;;8.85;4.22;;;32.80;55.50;;;;;;5095278;28;20563;-82
2021/07/10 06:38:35;;;;;;;6.65;4.60;;;32.90;55.50;;;;;;5095375;28;20407;-81
2021/07/10 06:41:01;;;;;;;7.60;4.88;;;32.90;55.30;;;;;;5094960;28;20040;-82
2021/07/10 06:43:27;;;;;;;7.47;4.38;;;32.90;55.90;;;;;;5095015;28;20031;-82
2021/07/10 06:45:53;;;;;;;7.72;5.07;;;32.80;55.20;;;;;;5094867;28;20047;-82
2021/07/10 06:48:19;;;;;;;8.90;4.28;;;32.90;55.00;;;;;;5095083;28;20411;-82
2021/07/10 06:50:45;;;;;;;5.82;4.78;;;32.90;55.00;;;;;;5094795;28;20062;-82
2021/07/10 06:53:11;;;;;;;5.50;5.00;;;32.90;54.90;;;;;;5094919;28;20046;-82
2021/07/10 06:55:37;;;;;;;5.97;4.45;;;32.90;54.90;;;;;;5094596;28;20044;-83
2021/07/10 06:58:03;;;;;;;7.13;4.55;;;33.00;54.80;;;;;;5095402;28;20461;-82
2021/07/10 07:00:29;;;;;;;5.43;4.50;;;32.90;54.80;;;;;;5094828;28;20051;-82
2021/07/10 07:02:55;;;;;;;6.05;4.93;;;32.90;54.60;;;;;;5094815;28;20551;-82
2021/07/10 07:05:21;;;;;;;7.88;4.78;;;32.90;54.30;;;;;;5094317;28;20097;-82
2021/07/10 07:07:47;;;;;;;7.20;4.93;;;32.90;54.30;;;;;;5094706;28;20032;-82
2021/07/10 07:10:13;;;;;;;7.00;5.07;;;32.90;54.20;;;;;;5094317;28;20051;-82
2021/07/10 07:12:40;;;;;;;7.95;5.22;;;32.90;54.00;;;;;;5094977;28;20487;-82
2021/07/10 07:15:08;;;;;;;7.55;4.88;;;32.90;53.90;;;;;;5094269;28;20043;-81
2021/07/10 07:17:34;;;;;;;6.75;4.90;;;32.90;53.90;;;;;;5094488;28;20040;-82
2021/07/10 07:20:00;;;;;;;6.80;4.80;;;32.90;53.90;;;;;;5094438;28;20084;-83
2021/07/10 07:22:26;;;;;;;7.05;4.78;;;32.90;53.80;;;;;;5094919;28;20032;-81
2021/07/10 07:24:52;;;;;;;8.65;4.97;;;32.90;53.80;;;;;;5076107;28;20483;-82
2021/07/10 07:27:18;;;;;;;7.85;5.15;;;32.90;53.80;;;;;;5094180;28;20035;-82
2021/07/10 07:29:44;;;;;;;5.93;5.32;;;32.90;53.70;;;;;;5094057;28;20024;-82
2021/07/10 07:32:10;;;;;;;7.95;5.43;;;32.90;53.70;;;;;;5093827;28;20111;-82
2021/07/10 07:34:36;;;;;;;8.63;5.40;;;32.90;53.60;;;;;;5093919;28;20051;-83
2021/07/10 07:37:02;;;;;;;5.75;5.25;;;32.90;53.50;;;;;;5093493;28;20510;-82
2021/07/10 07:39:28;;;;;;;5.47;5.00;;;32.80;53.30;;;;;;5093688;28;20036;-82
2021/07/10 07:41:53;;;;;;;6.40;5.80;;;32.80;53.30;;;;;;5094128;28;20047;-82
2021/07/10 07:44:19;;;;;;;6.38;5.57;;;32.80;53.30;;;;;;5094318;28;20549;-82
2021/07/10 07:46:45;;;;;;;5.70;5.15;;;32.80;53.20;;;;;;5094063;28;20032;-83
2021/07/10 07:49:11;;;;;;;6.20;5.20;;;32.70;53.30;;;;;;5093937;28;20036;-83
2021/07/10 07:51:37;;;;;;;7.90;5.90;;;32.70;53.30;;;;;;5093555;28;20116;-82
2021/07/10 07:54:03;;;;;;;6.30;5.78;;;32.70;53.30;;;;;;5093697;28;20052;-82
2021/07/10 07:56:29;;;;;;;7.75;5.63;;;32.70;53.40;;;;;;5093610;28;20043;-82
2021/07/10 07:58:55;;;;;;;6.32;5.82;;;32.70;53.40;;;;;;5093549;28;20215;-82
2021/07/10 08:01:21;;;;;;;6.13;5.53;;;32.60;54.00;;;;;;5093670;28;20062;-83
2021/07/10 08:03:47;;;;;;;6.63;5.20;;;32.60;53.30;;;;;;5093938;28;20028;-83
2021/07/10 08:06:14;;;;;;;7.30;5.60;;;32.60;53.30;;;;;;5075230;28;20484;-82
2021/07/10 08:08:40;;;;;;;6.50;5.80;;;32.60;53.40;;;;;;5093465;28;20111;-82
2021/07/10 08:11:07;;;;;;;6.97;6.18;;;32.50;53.40;;;;;;5093757;28;20124;-83
2021/07/10 08:13:34;;;;;;;6.80;6.20;;;32.50;53.40;;;;;;5093413;28;20047;-83
2021/07/10 08:16:00;;;;;;;8.13;6.18;;;32.50;53.40;;;;;;5093062;28;20075;-83
2021/07/10 08:18:27;;;;;;;6.72;6.15;;;32.50;53.30;;;;;;5092905;28;20514;-84
2021/07/10 08:20:53;;;;;;;8.93;6.72;;;32.50;53.10;;;;;;5093169;28;20484;-83
2021/07/10 08:23:19;;;;;;;8.30;6.88;;;32.50;53.00;;;;;;5093191;28;20081;-83
2021/07/10 08:25:46;;;;;;;6.65;6.07;;;32.50;52.90;;;;;;5093169;28;20040;-83
2021/07/10 08:28:12;;;;;;;8.20;6.95;;;32.50;52.80;;;;;;5093305;28;20061;-84
2021/07/10 08:30:38;;;;;;;7.18;6.57;;;32.40;52.80;;;;;;5093267;28;20131;-83
2021/07/10 08:33:04;;;;;;;7.05;6.43;;;32.40;52.80;;;;;;5093231;28;20579;-84
2021/07/10 08:35:30;;;;;;;9.00;6.55;;;32.40;52.80;;;;;;5092679;28;20072;-83
2021/07/10 08:37:57;;;;;;;7.72;7.05;;;32.40;52.80;;;;;;5092971;28;20423;-83
2021/07/10 08:40:23;;;;;;;8.35;6.82;;;32.30;52.70;;;;;;5093073;28;20111;-83
2021/07/10 08:42:50;;;;;;;7.22;6.63;;;32.30;52.70;;;;;;5092857;28;20039;-84
2021/07/10 08:45:17;;;;;;;7.97;6.82;;;32.30;52.80;;;;;;5074895;28;20155;-84
2021/07/10 08:47:44;;;;;;;7.68;6.55;;;32.30;52.80;;;;;;5093259;28;20126;-84
2021/07/10 08:50:16;;;;;;;8.27;6.55;;;32.40;52.80;;;;;;5092848;28;20031;-84
2021/07/10 08:52:42;;;;;;;7.80;7.10;;;32.30;52.60;;;;;;5092836;28;20036;-84
2021/07/10 08:55:12;;;;;;;7.43;6.68;;;32.30;52.50;;;;;;5092885;28;20036;-84
2021/07/10 08:57:38;;;;;;;7.13;6.47;;;32.30;52.50;;;;;;5074647;28;20028;-85
2021/07/10 09:00:07;;;;;;;9.18;6.80;;;32.30;52.60;;;;;;5093150;28;20436;-85
2021/07/10 09:02:35;;;;;;;7.55;6.78;;;32.30;52.70;;;;;;5092854;28;20051;-85
2021/07/10 09:05:04;;;;;;;7.45;6.75;;;32.30;52.70;;;;;;5092813;28;20032;-84
2021/07/10 09:07:30;;;;;;;7.70;7.00;;;32.30;52.70;;;;;;5092834;28;20169;-85
2021/07/10 09:09:57;;;;;;;8.07;6.95;;;32.30;52.70;;;;;;5093157;28;20081;-85
2021/07/10 09:12:31;;;;;;;8.23;7.50;;;32.30;52.60;;;;;;5092789;28;20031;-85
2021/07/10 09:15:17;;;;;;;6.93;6.23;;;32.30;52.50;;;;;;5108284;28;20040;-85
2021/07/10 09:17:47;;;;;;;8.20;6.47;;;32.30;51.80;;;;;;5074500;28;20089;-84
2021/07/10 09:20:28;;;;;;;7.35;6.65;;;32.30;51.80;;;;;;5091455;28;20040;-85
2021/07/10 09:22:54;;;;;;;8.15;6.88;;;32.30;51.90;;;;;;5092723;28;20506;-85
2021/07/10 09:25:29;;;;;;;7.93;6.95;;;32.30;51.80;;;;;;5092768;28;20047;-86
2021/07/10 09:27:57;;;;;;;7.20;6.50;;;32.30;51.80;;;;;;5092932;28;20038;-85
2021/07/10 09:30:52;;;;;;;7.72;6.97;;;32.20;51.90;;;;;;5112293;28;20381;-85
2021/07/10 09:33:22;;;;;;;7.25;6.55;;;32.20;51.80;;;;;;5079346;28;20063;-85
2021/07/10 09:35:59;;;;;;;8.27;7.18;;;32.30;51.60;;;;;;5096754;28;20059;-85
2021/07/10 09:38:26;;;;;;;6.80;6.25;;;32.20;51.40;;;;;;5096584;28;20048;-84
2021/07/10 09:41:03;;;;;;;9.85;7.40;;;32.30;51.20;;;;;;5096087;28;20039;-84
2021/07/10 09:43:32;;;;;;;7.63;6.72;;;32.20;51.20;;;;;;5112066;28;20070;-85
2021/07/10 09:46:02;;;;;;;7.03;6.53;;;32.20;51.10;;;;;;5096301;28;20043;-85
2021/07/10 09:48:42;;;;;;;7.97;7.00;;;32.30;51.20;;;;;;5111793;28;20036;-86
2021/07/10 09:51:26;;;;;;;7.68;7.03;;;32.20;51.20;;;;;;5096084;28;20555;-86
2021/07/10 09:53:59;;;;;;;7.90;6.93;;;32.20;51.20;;;;;;5096960;28;20031;-86
2021/07/10 09:56:25;;;;;;;7.35;6.63;;;32.20;51.20;;;;;;5096227;28;20557;-86
2021/07/10 09:58:50;;;;;;;8.27;7.30;;;32.20;51.30;;;;;;5096436;28;20032;-86
2021/07/10 10:01:34;;;;;;;7.68;6.90;;;32.20;51.40;;;;;;5095956;28;20114;-85
2021/07/10 10:04:01;;;;;;;7.43;6.82;;;32.20;51.50;;;;;;5077818;28;20040;-85
2021/07/10 10:06:33;;;;;;;8.18;7.35;;;32.20;51.60;;;;;;5111411;28;20040;-85
2021/07/10 10:09:00;;;;;;;8.00;7.30;;;32.20;51.70;;;;;;5095848;28;20436;-85
2021/07/10 10:12:05;;;;;;;7.45;6.85;;;32.20;51.80;;;;;;5077645;28;20058;-84
2021/07/10 10:14:37;;;;;;;7.25;6.57;;;32.20;51.90;;;;;;5095876;28;20035;-85
2021/07/10 10:17:03;;;;;;;8.20;7.50;;;32.20;51.80;;;;;;5095526;28;20044;-85
2021/07/10 10:19:32;;;;;;;7.45;6.75;;;32.30;51.80;;;;;;5095587;28;20032;-85
2021/07/10 10:22:02;;;;;;;7.82;7.13;;;32.20;51.70;;;;;;5095476;28;20047;-85
2021/07/10 10:24:29;;;;;;;7.70;7.00;;;32.20;51.30;;;;;;5095622;28;20028;-85
2021/07/10 10:26:59;;;;;;;8.07;7.38;;;32.20;50.90;;;;;;5111571;28;20130;-85
2021/07/10 10:29:28;;;;;;;8.15;7.35;;;32.20;51.10;;;;;;5095553;28;20547;-88
2021/07/10 10:31:56;;;;;;;10.27;7.40;;;32.20;51.00;;;;;;5095496;28;20042;-84
2021/07/10 10:34:22;;;;;;;7.85;7.15;;;32.30;51.10;;;;;;5095284;28;20109;-85
2021/07/10 10:36:51;;;;;;;8.13;7.25;;;32.30;51.10;;;;;;5094857;28;20047;-85
2021/07/10 10:39:20;;;;;;;7.78;7.03;;;32.30;51.00;;;;;;5094813;28;20036;-85
2021/07/10 10:41:49;;;;;;;8.60;7.28;;;32.30;51.10;;;;;;5094316;28;20044;-85
2021/07/10 10:44:16;;;;;;;8.18;7.38;;;32.30;51.10;;;;;;5094894;28;20032;-85
2021/07/10 10:46:52;;;;;;;8.20;7.03;;;32.20;51.10;;;;;;5094941;28;20059;-85
2021/07/10 10:49:51;;;;;;;7.35;6.75;;;32.30;51.20;;;;;;5095131;28;20051;-85
2021/07/10 10:52:35;;;;;;;9.15;7.10;;;32.20;51.20;;;;;;5094783;28;20036;-85
2021/07/10 10:55:21;;;;;;;8.25;7.43;;;32.30;51.30;;;;;;5076788;28;20132;-85
2021/07/10 10:58:01;;;;;;;8.98;7.03;;;32.20;51.10;;;;;;5076446;28;20032;-84
2021/07/10 11:00:37;;;;;;;8.15;7.45;;;32.20;51.10;;;;;;5095349;28;20043;-85
2021/07/10 11:03:08;;;;;;;9.77;7.75;;;32.20;51.10;;;;;;5094637;28;20089;-85
2021/07/10 11:05:34;;;;;;;8.95;8.00;;;32.20;51.00;;;;;;5095204;28;20039;-85
2021/07/10 11:08:18;;;;;;;8.75;7.95;;;32.10;50.80;;;;;;5094647;28;20040;-85
2021/07/10 11:10:53;;;;;;;8.75;7.95;;;32.10;50.90;;;;;;5094598;28;20089;-85
2021/07/10 11:13:26;;;;;;;;;;;32.20;50.90;;;;;;5095205;28;20046;-85
2021/07/10 11:16:11;;;;;;;8.50;7.80;;;32.20;51.00;;;;;;5094855;28;19989;-85
2021/07/10 11:18:58;;;;;;;;;;;32.30;51.00;;;;;;5095487;28;20461;-86
2021/07/10 11:21:52;;;;;;;9.57;8.00;;;32.30;51.10;;;;;;5076180;28;19999;-85
2021/07/10 11:24:21;;;;;;;8.88;7.97;;;32.20;51.10;;;;;;5092209;28;20077;-86
2021/07/10 11:26:56;;;;;;;9.35;7.90;;;32.20;51.10;;;;;;5094533;28;20120;-86
2021/07/10 11:29:34;;;;;;;;;;;32.20;51.30;;;;;;5094616;28;20036;-85
2021/07/10 11:32:12;;;;;;;9.65;8.45;;;32.20;51.20;;;;;;5093759;28;19912;-85
2021/07/10 11:34:43;;;;;;;9.95;8.93;;;32.20;51.30;;;;;;5094521;28;20052;-85
2021/07/10 11:37:22;;;;;;;9.40;8.50;;;32.20;51.20;;;;;;5075932;28;20447;-86
2021/07/10 11:40:01;;;;;;;9.65;8.20;;;32.20;51.20;;;;;;5094031;28;20062;-85
2021/07/10 11:42:32;;;;;;;9.02;8.23;;;32.20;51.30;;;;;;5094102;28;20333;-85
2021/07/10 11:45:04;;;;;;;11.48;8.63;;;32.20;51.40;;;;;;5093862;28;20087;-86
2021/07/10 11:47:40;;;;;;;9.93;8.57;;;32.20;51.50;;;;;;5075720;28;20487;-86
2021/07/10 11:50:15;;;;;;;9.63;8.63;;;32.10;51.50;;;;;;5093814;28;20503;-85
2021/07/10 11:52:41;;;;;;;8.90;8.10;;;32.10;51.60;;;;;;5092863;28;20039;-85
2021/07/10 11:55:10;;;;;;;9.02;8.23;;;32.10;51.70;;;;;;5093647;28;20044;-86
2021/07/10 11:57:38;;;;;;;9.90;8.15;;;32.10;51.70;;;;;;5093835;28;20393;-86
2021/07/10 12:00:13;;;;;;;9.38;8.50;;;32.10;51.80;;;;;;5093900;28;20491;-86
2021/07/10 12:02:40;;;;;;;8.63;7.82;;;32.10;51.90;;;;;;5093590;28;20051;-86
2021/07/10 12:05:09;;;;;;;9.82;8.98;;;32.10;51.70;;;;;;5093547;28;20040;-86
2021/07/10 12:07:47;;;;;;;10.70;9.02;;;32.10;51.40;;;;;;5093431;28;20039;-86
2021/07/10 12:10:36;;;;;;;9.60;8.63;;;32.20;51.00;;;;;;5093839;28;20077;-86
2021/07/10 12:13:13;;;;;;;11.02;8.93;;;32.20;51.00;;;;;;5092615;28;20055;-85
2021/07/10 12:15:58;;;;;;;9.63;8.70;;;32.20;50.90;;;;;;5109435;28;20468;-86
2021/07/10 12:18:26;;;;;;;10.63;9.48;;;32.30;51.00;;;;;;5093241;28;20373;-86
2021/07/10 12:20:58;;;;;;;9.82;9.02;;;32.30;50.80;;;;;;5093025;28;20059;-86
2021/07/10 12:23:28;;;;;;;10.10;9.20;;;32.30;50.80;;;;;;5093293;28;20099;-86
2021/07/10 12:26:00;;;;;;;10.52;9.32;;;32.30;50.70;;;;;;5093485;28;20065;-86
2021/07/10 12:28:50;;;;;;;10.13;9.00;;;32.30;50.70;;;;;;5093170;28;20075;-86
2021/07/10 12:31:18;;;;;;;10.25;8.75;;;32.20;50.70;;;;;;5108945;28;20527;-86
2021/07/10 12:33:58;;;;;;;9.77;8.98;;;32.20;50.60;;;;;;5093015;28;20136;-86
2021/07/10 12:36:24;;;;;;;10.02;9.10;;;32.20;50.60;;;;;;5093058;28;20488;-86
2021/07/10 12:38:57;;;;;;;9.60;8.70;;;32.20;50.70;;;;;;5093149;28;20031;-86
2021/07/10 12:41:23;;;;;;;10.27;9.30;;;32.20;50.60;;;;;;5075019;28;20036;-86
2021/07/10 12:43:49;;;;;;;10.00;9.10;;;32.20;50.70;;;;;;5092971;28;20047;-86
2021/07/10 12:46:16;;;;;;;9.98;9.07;;;32.20;50.70;;;;;;5092812;28;20539;-86
2021/07/10 12:48:43;;;;;;;10.20;8.98;;;32.20;50.70;;;;;;5092812;28;20558;-86
2021/07/10 12:51:09;;;;;;;10.73;9.55;;;32.20;50.70;;;;;;5092990;28;20032;-86
2021/07/10 12:53:38;;;;;;;10.00;9.10;;;32.20;50.80;;;;;;5092839;28;20036;-86